sensor_id;sensor_type;location;lat;lon;timestamp;pressure;altitude;pressure_sealevel;temperature;humidity
11349;BME280;5729;43.570;27.826;2023-07-28T00:00:42;98989.66;;;16.20;100.00
11349;BME280;5729;43.570;27.826;2023-07-28T00:03:07;98985.38;;;16.19;100.00
11349;BME280;5729;43.570;27.826;2023-07-28T00:05:33;98983.06;;;16.21;100.00
11349;BME280;5729;43.570;27.826;2023-07-28T00:07:59;98981.94;;;16.11;100.00
11349;BME280;5729;43.570;27.826;2023-07-28T00:10:24;98983.44;;;16.16;100.00
11349;BME280;5729;43.570;27.826;2023-07-28T00:12:50;98980.34;;;16.21;100.00
11349;BME280;5729;43.570;27.826;2023-07-28T00:15:15;98985.78;;;16.24;100.00
11349;BME280;5729;43.570;27.826;2023-07-28T00:17:40;98972.91;;;16.28;100.00
11349;BME280;5729;43.570;27.826;2023-07-28T00:20:08;98988.44;;;16.31;100.00
11349;BME280;5729;43.570;27.826;2023-07-28T00:22:34;98986.13;;;16.30;100.00
11349;BME280;5729;43.570;27.826;2023-07-28T00:24:59;98986.91;;;16.27;100.00
11349;BME280;5729;43.570;27.826;2023-07-28T00:27:24;98996.59;;;16.31;100.00
11349;BME280;5729;43.570;27.826;2023-07-28T00:29:50;98991.97;;;16.25;100.00
11349;BME280;5729;43.570;27.826;2023-07-28T00:32:15;98999.31;;;16.31;100.00
11349;BME280;5729;43.570;27.826;2023-07-28T00:34:41;99002.44;;;16.30;100.00
11349;BME280;5729;43.570;27.826;2023-07-28T00:37:06;98996.59;;;16.28;100.00
11349;BME280;5729;43.570;27.826;2023-07-28T00:39:32;98996.59;;;16.31;100.00
11349;BME280;5729;43.570;27.826;2023-07-28T00:41:57;98998.53;;;16.34;100.00
11349;BME280;5729;43.570;27.826;2023-07-28T00:44:22;99004.38;;;16.33;100.00
11349;BME280;5729;43.570;27.826;2023-07-28T00:46:48;99012.47;;;16.40;100.00
11349;BME280;5729;43.570;27.826;2023-07-28T00:49:13;99013.25;;;16.41;100.00
11349;BME280;5729;43.570;27.826;2023-07-28T00:51:39;99007.81;;;16.37;100.00
11349;BME280;5729;43.570;27.826;2023-07-28T00:54:05;99008.25;;;16.32;100.00
11349;BME280;5729;43.570;27.826;2023-07-28T00:56:31;99006.31;;;16.36;100.00
11349;BME280;5729;43.570;27.826;2023-07-28T00:58:57;99012.91;;;16.35;100.00
11349;BME280;5729;43.570;27.826;2023-07-28T01:01:22;99011.34;;;16.34;100.00
11349;BME280;5729;43.570;27.826;2023-07-28T01:03:49;99010.19;;;16.35;100.00
11349;BME280;5729;43.570;27.826;2023-07-28T01:06:31;99018.38;;;16.28;100.00
11349;BME280;5729;43.570;27.826;2023-07-28T01:09:03;99015.25;;;16.29;100.00
11349;BME280;5729;43.570;27.826;2023-07-28T01:11:32;99014.88;;;16.27;100.00
11349;BME280;5729;43.570;27.826;2023-07-28T01:13:57;99013.75;;;16.18;100.00
11349;BME280;5729;43.570;27.826;2023-07-28T01:16:23;99008.69;;;16.20;100.00
11349;BME280;5729;43.570;27.826;2023-07-28T01:18:49;99010.25;;;16.21;100.00
11349;BME280;5729;43.570;27.826;2023-07-28T01:21:20;99001.69;;;16.19;100.00
11349;BME280;5729;43.570;27.826;2023-07-28T01:24:06;99011.38;;;16.27;100.00
11349;BME280;5729;43.570;27.826;2023-07-28T01:26:38;99012.56;;;16.22;100.00
11349;BME280;5729;43.570;27.826;2023-07-28T01:29:05;99013.34;;;16.19;100.00
11349;BME280;5729;43.570;27.826;2023-07-28T01:31:31;99009.09;;;16.18;100.00
11349;BME280;5729;43.570;27.826;2023-07-28T01:33:56;99020.78;;;16.12;100.00
11349;BME280;5729;43.570;27.826;2023-07-28T01:36:22;99007.97;;;16.09;100.00
11349;BME280;5729;43.570;27.826;2023-07-28T01:38:48;99010.69;;;16.05;100.00
11349;BME280;5729;43.570;27.826;2023-07-28T01:41:13;99012.66;;;16.01;100.00
11349;BME280;5729;43.570;27.826;2023-07-28T01:43:39;99011.88;;;16.01;100.00
11349;BME280;5729;43.570;27.826;2023-07-28T01:46:04;99016.16;;;15.98;100.00
11349;BME280;5729;43.570;27.826;2023-07-28T01:48:29;99018.09;;;15.97;100.00
11349;BME280;5729;43.570;27.826;2023-07-28T01:50:55;99018.09;;;15.94;100.00
11349;BME280;5729;43.570;27.826;2023-07-28T01:53:21;99020.81;;;15.97;100.00
11349;BME280;5729;43.570;27.826;2023-07-28T01:55:46;99025.47;;;16.01;100.00
11349;BME280;5729;43.570;27.826;2023-07-28T01:58:11;99024.31;;;15.94;100.00
11349;BME280;5729;43.570;27.826;2023-07-28T02:00:37;99023.19;;;15.85;100.00
11349;BME280;5729;43.570;27.826;2023-07-28T02:03:02;99028.63;;;15.88;100.00
11349;BME280;5729;43.570;27.826;2023-07-28T02:05:29;99026.28;;;15.90;100.00
11349;BME280;5729;43.570;27.826;2023-07-28T02:07:55;99027.06;;;15.91;100.00
11349;BME280;5729;43.570;27.826;2023-07-28T02:10:22;99032.88;;;15.89;100.00
11349;BME280;5729;43.570;27.826;2023-07-28T02:12:48;99045.69;;;15.89;100.00
11349;BME280;5729;43.570;27.826;2023-07-28T02:15:14;99033.63;;;15.93;100.00
11349;BME280;5729;43.570;27.826;2023-07-28T02:17:39;99037.13;;;15.94;100.00
11349;BME280;5729;43.570;27.826;2023-07-28T02:20:05;99034.81;;;16.00;100.00
11349;BME280;5729;43.570;27.826;2023-07-28T02:22:31;99041.41;;;16.02;100.00
11349;BME280;5729;43.570;27.826;2023-07-28T02:24:57;99042.56;;;16.01;100.00
11349;BME280;5729;43.570;27.826;2023-07-28T02:27:26;99040.25;;;15.92;100.00
11349;BME280;5729;43.570;27.826;2023-07-28T02:29:52;99051.88;;;15.96;100.00
11349;BME280;5729;43.570;27.826;2023-07-28T02:32:18;99050.34;;;15.99;100.00
11349;BME280;5729;43.570;27.826;2023-07-28T02:34:43;99044.13;;;15.98;100.00
11349;BME280;5729;43.570;27.826;2023-07-28T02:37:08;99049.56;;;16.02;100.00
11349;BME280;5729;43.570;27.826;2023-07-28T02:39:34;99048.78;;;16.02;100.00
11349;BME280;5729;43.570;27.826;2023-07-28T02:41:59;99058.47;;;16.06;100.00
11349;BME280;5729;43.570;27.826;2023-07-28T02:44:25;99054.56;;;16.07;100.00
11349;BME280;5729;43.570;27.826;2023-07-28T02:46:50;99056.50;;;16.10;100.00
11349;BME280;5729;43.570;27.826;2023-07-28T02:49:15;99052.25;;;16.09;100.00
11349;BME280;5729;43.570;27.826;2023-07-28T02:51:41;99060.41;;;16.13;100.00
11349;BME280;5729;43.570;27.826;2023-07-28T02:54:07;99068.13;;;16.14;100.00
11349;BME280;5729;43.570;27.826;2023-07-28T02:56:32;99068.13;;;16.14;100.00
11349;BME280;5729;43.570;27.826;2023-07-28T02:59:02;99064.66;;;16.14;100.00
11349;BME280;5729;43.570;27.826;2023-07-28T03:01:31;99072.81;;;16.14;100.00
11349;BME280;5729;43.570;27.826;2023-07-28T03:04:03;99079.03;;;16.07;100.00
11349;BME280;5729;43.570;27.826;2023-07-28T03:06:29;99080.22;;;16.03;100.00
11349;BME280;5729;43.570;27.826;2023-07-28T03:08:54;99074.41;;;16.01;100.00
11349;BME280;5729;43.570;27.826;2023-07-28T03:11:20;99066.63;;;15.92;100.00
11349;BME280;5729;43.570;27.826;2023-07-28T03:13:46;99071.31;;;15.88;100.00
11349;BME280;5729;43.570;27.826;2023-07-28T03:16:11;99089.56;;;15.87;100.00
11349;BME280;5729;43.570;27.826;2023-07-28T03:18:37;99081.41;;;15.87;100.00
11349;BME280;5729;43.570;27.826;2023-07-28T03:21:02;99089.56;;;15.91;100.00
11349;BME280;5729;43.570;27.826;2023-07-28T03:23:28;99093.03;;;15.95;100.00
11349;BME280;5729;43.570;27.826;2023-07-28T03:25:53;99085.66;;;16.03;100.00
11349;BME280;5729;43.570;27.826;2023-07-28T03:28:18;99090.69;;;16.08;100.00
11349;BME280;5729;43.570;27.826;2023-07-28T03:30:44;99095.34;;;16.11;100.00
11349;BME280;5729;43.570;27.826;2023-07-28T03:33:09;99100.00;;;16.10;100.00
11349;BME280;5729;43.570;27.826;2023-07-28T03:35:35;99108.94;;;16.07;100.00
11349;BME280;5729;43.570;27.826;2023-07-28T03:38:00;99108.16;;;16.03;100.00
11349;BME280;5729;43.570;27.826;2023-07-28T03:40:26;99100.00;;;16.07;100.00
11349;BME280;5729;43.570;27.826;2023-07-28T03:42:52;99107.38;;;16.13;100.00
11349;BME280;5729;43.570;27.826;2023-07-28T03:45:18;99103.09;;;16.16;100.00
11349;BME280;5729;43.570;27.826;2023-07-28T03:47:44;99105.41;;;16.24;100.00
11349;BME280;5729;43.570;27.826;2023-07-28T03:50:09;99115.88;;;16.29;100.00
11349;BME280;5729;43.570;27.826;2023-07-28T03:52:35;99103.84;;;16.34;100.00
11349;BME280;5729;43.570;27.826;2023-07-28T03:55:01;99111.56;;;16.39;100.00
11349;BME280;5729;43.570;27.826;2023-07-28T03:57:26;99091.78;;;16.35;100.00
11349;BME280;5729;43.570;27.826;2023-07-28T03:59:52;99112.34;;;16.47;100.00
11349;BME280;5729;43.570;27.826;2023-07-28T04:02:17;99113.91;;;16.44;100.00
11349;BME280;5729;43.570;27.826;2023-07-28T04:04:43;99126.28;;;16.49;100.00
11349;BME280;5729;43.570;27.826;2023-07-28T04:07:08;99115.44;;;16.45;100.00
11349;BME280;5729;43.570;27.826;2023-07-28T04:09:34;99131.34;;;16.57;100.00
11349;BME280;5729;43.570;27.826;2023-07-28T04:11:59;99129.78;;;16.56;100.00
11349;BME280;5729;43.570;27.826;2023-07-28T04:14:25;99124.00;;;16.47;100.00
11349;BME280;5729;43.570;27.826;2023-07-28T04:16:50;99129.41;;;16.54;100.00
11349;BME280;5729;43.570;27.826;2023-07-28T04:19:16;99137.94;;;16.56;100.00
11349;BME280;5729;43.570;27.826;2023-07-28T04:21:41;99141.41;;;16.60;100.00
11349;BME280;5729;43.570;27.826;2023-07-28T04:24:08;99146.50;;;16.65;100.00
11349;BME280;5729;43.570;27.826;2023-07-28T04:26:33;99142.16;;;16.72;100.00
11349;BME280;5729;43.570;27.826;2023-07-28T04:28:59;99147.22;;;16.77;100.00
11349;BME280;5729;43.570;27.826;2023-07-28T04:31:24;99141.00;;;16.76;100.00
11349;BME280;5729;43.570;27.826;2023-07-28T04:33:50;99142.56;;;16.77;100.00
11349;BME280;5729;43.570;27.826;2023-07-28T04:36:15;99144.06;;;16.85;100.00
11349;BME280;5729;43.570;27.826;2023-07-28T04:38:41;99144.03;;;16.92;100.00
11349;BME280;5729;43.570;27.826;2023-07-28T04:41:06;99139.72;;;16.98;100.00
11349;BME280;5729;43.570;27.826;2023-07-28T04:43:32;99145.88;;;17.06;100.00
11349;BME280;5729;43.570;27.826;2023-07-28T04:45:57;99145.53;;;17.00;100.00
11349;BME280;5729;43.570;27.826;2023-07-28T04:48:23;99156.38;;;17.11;100.00
11349;BME280;5729;43.570;27.826;2023-07-28T04:50:48;99143.94;;;17.06;100.00
11349;BME280;5729;43.570;27.826;2023-07-28T04:53:14;99143.16;;;17.10;100.00
11349;BME280;5729;43.570;27.826;2023-07-28T04:55:39;99141.16;;;17.17;100.00
11349;BME280;5729;43.570;27.826;2023-07-28T04:58:05;99150.88;;;17.22;100.00
11349;BME280;5729;43.570;27.826;2023-07-28T05:00:30;99151.97;;;17.28;100.00
11349;BME280;5729;43.570;27.826;2023-07-28T05:02:56;99153.91;;;17.34;100.00
11349;BME280;5729;43.570;27.826;2023-07-28T05:05:21;99152.72;;;17.35;100.00
11349;BME280;5729;43.570;27.826;2023-07-28T05:07:47;99151.91;;;17.42;100.00
11349;BME280;5729;43.570;27.826;2023-07-28T05:10:12;99145.28;;;17.43;100.00
11349;BME280;5729;43.570;27.826;2023-07-28T05:12:37;99153.84;;;17.41;100.00
11349;BME280;5729;43.570;27.826;2023-07-28T05:15:05;99137.53;;;17.38;100.00
11349;BME280;5729;43.570;27.826;2023-07-28T05:17:30;99145.63;;;17.49;100.00
11349;BME280;5729;43.570;27.826;2023-07-28T05:19:56;99148.38;;;17.49;100.00
11349;BME280;5729;43.570;27.826;2023-07-28T05:22:21;99149.88;;;17.50;100.00
11349;BME280;5729;43.570;27.826;2023-07-28T05:24:47;99153.38;;;17.54;100.00
11349;BME280;5729;43.570;27.826;2023-07-28T05:27:12;99155.28;;;17.60;100.00
11349;BME280;5729;43.570;27.826;2023-07-28T05:29:38;99152.53;;;17.64;100.00
11349;BME280;5729;43.570;27.826;2023-07-28T05:32:04;99154.88;;;17.65;100.00
11349;BME280;5729;43.570;27.826;2023-07-28T05:34:29;99154.84;;;17.69;100.00
11349;BME280;5729;43.570;27.826;2023-07-28T05:36:55;99152.91;;;17.69;100.00
11349;BME280;5729;43.570;27.826;2023-07-28T05:39:21;99156.63;;;17.90;100.00
11349;BME280;5729;43.570;27.826;2023-07-28T05:41:46;99154.97;;;17.99;100.00
11349;BME280;5729;43.570;27.826;2023-07-28T05:44:12;99157.63;;;18.06;100.00
11349;BME280;5729;43.570;27.826;2023-07-28T05:46:37;99157.09;;;18.19;100.00
11349;BME280;5729;43.570;27.826;2023-07-28T05:49:03;99154.63;;;18.35;100.00
11349;BME280;5729;43.570;27.826;2023-07-28T05:51:28;99147.19;;;18.39;100.00
11349;BME280;5729;43.570;27.826;2023-07-28T05:53:54;99153.69;;;18.48;100.00
11349;BME280;5729;43.570;27.826;2023-07-28T05:56:20;99153.19;;;18.57;100.00
11349;BME280;5729;43.570;27.826;2023-07-28T05:58:46;99162.94;;;18.62;100.00
11349;BME280;5729;43.570;27.826;2023-07-28T06:01:12;99158.28;;;18.55;100.00
11349;BME280;5729;43.570;27.826;2023-07-28T06:03:37;99150.41;;;18.64;100.00
11349;BME280;5729;43.570;27.826;2023-07-28T06:06:03;99147.22;;;18.69;100.00
11349;BME280;5729;43.570;27.826;2023-07-28T06:08:29;99153.84;;;18.72;100.00
11349;BME280;5729;43.570;27.826;2023-07-28T06:10:54;99150.69;;;18.73;100.00
11349;BME280;5729;43.570;27.826;2023-07-28T06:13:20;99140.22;;;18.68;100.00
11349;BME280;5729;43.570;27.826;2023-07-28T06:15:46;99147.59;;;18.71;100.00
11349;BME280;5729;43.570;27.826;2023-07-28T06:18:12;99147.91;;;18.77;100.00
11349;BME280;5729;43.570;27.826;2023-07-28T06:20:37;99157.63;;;18.81;100.00
11349;BME280;5729;43.570;27.826;2023-07-28T06:23:03;99152.09;;;18.85;100.00
11349;BME280;5729;43.570;27.826;2023-07-28T06:25:28;99134.06;;;18.91;100.00
11349;BME280;5729;43.570;27.826;2023-07-28T06:27:53;99145.00;;;18.91;100.00
11349;BME280;5729;43.570;27.826;2023-07-28T06:30:20;99160.97;;;18.93;100.00
11349;BME280;5729;43.570;27.826;2023-07-28T06:46:54;99147.91;;;19.34;100.00
11349;BME280;5729;43.570;27.826;2023-07-28T06:49:20;99141.22;;;19.39;100.00
11349;BME280;5729;43.570;27.826;2023-07-28T06:51:45;99149.97;;;19.53;100.00
11349;BME280;5729;43.570;27.826;2023-07-28T06:54:11;99152.19;;;19.62;100.00
11349;BME280;5729;43.570;27.826;2023-07-28T06:56:38;99147.78;;;19.68;100.00
11349;BME280;5729;43.570;27.826;2023-07-28T06:59:03;99146.91;;;19.75;100.00
11349;BME280;5729;43.570;27.826;2023-07-28T07:01:29;99150.34;;;19.79;100.00
11349;BME280;5729;43.570;27.826;2023-07-28T07:03:54;99153.31;;;19.88;100.00
11349;BME280;5729;43.570;27.826;2023-07-28T07:06:21;99145.78;;;19.96;100.00
11349;BME280;5729;43.570;27.826;2023-07-28T07:08:46;99153.91;;;19.99;100.00
11349;BME280;5729;43.570;27.826;2023-07-28T07:11:12;99149.94;;;20.04;100.00
11349;BME280;5729;43.570;27.826;2023-07-28T07:13:37;99148.25;;;20.10;100.00
11349;BME280;5729;43.570;27.826;2023-07-28T07:16:02;99152.00;;;20.19;100.00
11349;BME280;5729;43.570;27.826;2023-07-28T07:18:28;99147.31;;;20.20;100.00
11349;BME280;5729;43.570;27.826;2023-07-28T07:20:53;99152.91;;;20.33;100.00
11349;BME280;5729;43.570;27.826;2023-07-28T07:23:19;99151.69;;;20.37;100.00
11349;BME280;5729;43.570;27.826;2023-07-28T07:25:44;99159.84;;;20.41;100.00
11349;BME280;5729;43.570;27.826;2023-07-28T07:28:10;99159.69;;;20.48;100.00
11349;BME280;5729;43.570;27.826;2023-07-28T07:30:35;99156.03;;;20.54;100.00
11349;BME280;5729;43.570;27.826;2023-07-28T07:33:01;99160.97;;;20.63;100.00
11349;BME280;5729;43.570;27.826;2023-07-28T07:35:26;99165.16;;;20.67;100.00
11349;BME280;5729;43.570;27.826;2023-07-28T07:37:52;99165.41;;;20.77;100.00
11349;BME280;5729;43.570;27.826;2023-07-28T07:40:17;99168.41;;;20.82;100.00
11349;BME280;5729;43.570;27.826;2023-07-28T07:42:46;99163.63;;;20.86;100.00
11349;BME280;5729;43.570;27.826;2023-07-28T07:45:13;99163.53;;;20.90;100.00
11349;BME280;5729;43.570;27.826;2023-07-28T07:47:40;99161.94;;;20.92;100.00
11349;BME280;5729;43.570;27.826;2023-07-28T07:50:07;99158.34;;;20.95;100.00
11349;BME280;5729;43.570;27.826;2023-07-28T07:52:34;99161.34;;;21.01;100.00
11349;BME280;5729;43.570;27.826;2023-07-28T07:55:00;99156.91;;;21.07;100.00
11349;BME280;5729;43.570;27.826;2023-07-28T07:57:25;99155.88;;;21.21;100.00
11349;BME280;5729;43.570;27.826;2023-07-28T07:59:51;99149.38;;;21.31;100.00
11349;BME280;5729;43.570;27.826;2023-07-28T08:02:16;99153.06;;;21.41;100.00
11349;BME280;5729;43.570;27.826;2023-07-28T08:04:41;99158.81;;;21.62;100.00
11349;BME280;5729;43.570;27.826;2023-07-28T08:07:07;99154.81;;;22.28;100.00
11349;BME280;5729;43.570;27.826;2023-07-28T08:09:32;99158.25;;;23.66;100.00
11349;BME280;5729;43.570;27.826;2023-07-28T08:11:59;99156.59;;;25.83;100.00
11349;BME280;5729;43.570;27.826;2023-07-28T08:14:25;99160.69;;;27.48;92.60
11349;BME280;5729;43.570;27.826;2023-07-28T08:16:50;99150.22;;;28.24;66.13
11349;BME280;5729;43.570;27.826;2023-07-28T08:19:16;99153.25;;;29.58;68.40
11349;BME280;5729;43.570;27.826;2023-07-28T08:21:42;99166.06;;;31.78;60.05
11349;BME280;5729;43.570;27.826;2023-07-28T08:24:07;99158.72;;;33.84;55.22
11349;BME280;5729;43.570;27.826;2023-07-28T08:26:33;99160.38;;;36.00;47.09
11349;BME280;5729;43.570;27.826;2023-07-28T08:28:59;99147.56;;;37.52;37.85
11349;BME280;5729;43.570;27.826;2023-07-28T08:31:25;99147.78;;;38.95;31.83
11349;BME280;5729;43.570;27.826;2023-07-28T08:33:50;99151.13;;;39.84;28.67
11349;BME280;5729;43.570;27.826;2023-07-28T08:36:16;99148.34;;;40.66;29.59
11349;BME280;5729;43.570;27.826;2023-07-28T08:38:41;99142.91;;;41.44;26.05
11349;BME280;5729;43.570;27.826;2023-07-28T08:41:07;99129.88;;;42.52;26.06
11349;BME280;5729;43.570;27.826;2023-07-28T08:43:32;99120.38;;;44.27;28.44
11349;BME280;5729;43.570;27.826;2023-07-28T08:45:58;99128.59;;;45.62;25.86
11349;BME280;5729;43.570;27.826;2023-07-28T08:48:26;99106.88;;;45.56;21.04
11349;BME280;5729;43.570;27.826;2023-07-28T08:50:53;99136.00;;;46.44;23.48
11349;BME280;5729;43.570;27.826;2023-07-28T08:53:18;99130.63;;;46.79;22.74
11349;BME280;5729;43.570;27.826;2023-07-28T08:55:45;99123.03;;;46.93;19.23
11349;BME280;5729;43.570;27.826;2023-07-28T08:58:17;99119.06;;;46.77;20.84
11349;BME280;5729;43.570;27.826;2023-07-28T09:00:44;99105.16;;;47.78;19.62
11349;BME280;5729;43.570;27.826;2023-07-28T09:03:12;99110.03;;;47.54;17.91
11349;BME280;5729;43.570;27.826;2023-07-28T09:05:37;99101.34;;;47.85;17.91
11349;BME280;5729;43.570;27.826;2023-07-28T09:08:06;99098.59;;;47.54;17.77
11349;BME280;5729;43.570;27.826;2023-07-28T09:10:46;99101.06;;;48.14;18.07
11349;BME280;5729;43.570;27.826;2023-07-28T09:13:13;99110.72;;;48.53;18.66
11349;BME280;5729;43.570;27.826;2023-07-28T09:15:39;99109.81;;;48.62;17.62
11349;BME280;5729;43.570;27.826;2023-07-28T09:18:11;99107.97;;;49.39;18.77
11349;BME280;5729;43.570;27.826;2023-07-28T09:20:39;99117.38;;;49.65;18.09
11349;BME280;5729;43.570;27.826;2023-07-28T09:23:05;99105.34;;;48.48;17.58
11349;BME280;5729;43.570;27.826;2023-07-28T09:25:33;99098.13;;;48.82;17.73
11349;BME280;5729;43.570;27.826;2023-07-28T09:27:59;99097.47;;;49.06;17.97
11349;BME280;5729;43.570;27.826;2023-07-28T09:30:25;99100.44;;;48.15;17.30
11349;BME280;5729;43.570;27.826;2023-07-28T09:32:53;99078.94;;;47.69;17.48
11349;BME280;5729;43.570;27.826;2023-07-28T09:35:19;99085.75;;;48.09;16.81
11349;BME280;5729;43.570;27.826;2023-07-28T09:37:50;99088.28;;;48.15;19.63
11349;BME280;5729;43.570;27.826;2023-07-28T09:40:20;99090.91;;;48.57;18.29
11349;BME280;5729;43.570;27.826;2023-07-28T09:42:47;99088.56;;;49.37;16.84
11349;BME280;5729;43.570;27.826;2023-07-28T09:45:19;99085.81;;;49.39;17.08
11349;BME280;5729;43.570;27.826;2023-07-28T09:47:47;99081.22;;;48.74;16.74
11349;BME280;5729;43.570;27.826;2023-07-28T09:50:17;99086.19;;;48.38;17.75
11349;BME280;5729;43.570;27.826;2023-07-28T09:52:45;99078.50;;;48.53;17.43
11349;BME280;5729;43.570;27.826;2023-07-28T09:55:11;99086.91;;;48.16;16.98
11349;BME280;5729;43.570;27.826;2023-07-28T09:57:55;99075.16;;;47.55;14.92
11349;BME280;5729;43.570;27.826;2023-07-28T10:00:22;99083.44;;;46.06;17.26
11349;BME280;5729;43.570;27.826;2023-07-28T10:02:48;99088.94;;;44.25;16.54
11349;BME280;5729;43.570;27.826;2023-07-28T10:05:14;99084.94;;;43.15;18.85
11349;BME280;5729;43.570;27.826;2023-07-28T10:07:42;99071.06;;;42.85;18.31
11349;BME280;5729;43.570;27.826;2023-07-28T10:10:10;99077.09;;;42.89;19.23
11349;BME280;5729;43.570;27.826;2023-07-28T10:12:45;99064.78;;;43.11;23.72
11349;BME280;5729;43.570;27.826;2023-07-28T10:15:15;99067.53;;;43.36;23.02
11349;BME280;5729;43.570;27.826;2023-07-28T10:17:46;99061.94;;;42.44;17.72
11349;BME280;5729;43.570;27.826;2023-07-28T10:22:53;99058.50;;;40.42;23.11
11349;BME280;5729;43.570;27.826;2023-07-28T10:25:25;99061.34;;;40.57;20.22
11349;BME280;5729;43.570;27.826;2023-07-28T10:27:51;99061.00;;;40.83;22.00
11349;BME280;5729;43.570;27.826;2023-07-28T10:30:16;99063.97;;;40.55;22.77
11349;BME280;5729;43.570;27.826;2023-07-28T10:32:44;99063.78;;;40.68;21.36
11349;BME280;5729;43.570;27.826;2023-07-28T10:37:39;99045.47;;;40.16;22.20
11349;BME280;5729;43.570;27.826;2023-07-28T10:40:27;99043.25;;;39.78;22.32
11349;BME280;5729;43.570;27.826;2023-07-28T10:42:54;99048.59;;;39.46;22.92
11349;BME280;5729;43.570;27.826;2023-07-28T10:45:21;99033.59;;;39.22;24.24
11349;BME280;5729;43.570;27.826;2023-07-28T10:47:48;99033.00;;;38.67;22.59
11349;BME280;5729;43.570;27.826;2023-07-28T10:50:14;99025.31;;;38.68;22.91
11349;BME280;5729;43.570;27.826;2023-07-28T10:52:41;99016.44;;;38.64;25.74
11349;BME280;5729;43.570;27.826;2023-07-28T10:55:22;99017.69;;;38.55;28.16
11349;BME280;5729;43.570;27.826;2023-07-28T10:57:50;99025.84;;;38.66;24.13
11349;BME280;5729;43.570;27.826;2023-07-28T11:00:17;99026.28;;;38.70;22.82
11349;BME280;5729;43.570;27.826;2023-07-28T11:05:12;99016.78;;;37.85;25.44
11349;BME280;5729;43.570;27.826;2023-07-28T11:07:41;99019.44;;;38.03;24.91
11349;BME280;5729;43.570;27.826;2023-07-28T11:10:07;99021.09;;;38.40;23.34
11349;BME280;5729;43.570;27.826;2023-07-28T11:12:33;99004.94;;;38.82;23.43
11349;BME280;5729;43.570;27.826;2023-07-28T11:14:58;99020.34;;;39.10;26.26
11349;BME280;5729;43.570;27.826;2023-07-28T11:17:24;99019.34;;;39.00;21.18
11349;BME280;5729;43.570;27.826;2023-07-28T11:19:52;99003.63;;;38.83;25.06
11349;BME280;5729;43.570;27.826;2023-07-28T11:22:17;99003.91;;;38.72;26.73
11349;BME280;5729;43.570;27.826;2023-07-28T11:24:42;99000.97;;;38.78;26.12
11349;BME280;5729;43.570;27.826;2023-07-28T11:27:08;99002.69;;;38.81;25.27
11349;BME280;5729;43.570;27.826;2023-07-28T11:29:35;99010.69;;;38.98;24.86
11349;BME280;5729;43.570;27.826;2023-07-28T11:32:00;98996.41;;;37.92;27.25
11349;BME280;5729;43.570;27.826;2023-07-28T11:34:25;98997.44;;;38.15;27.16
11349;BME280;5729;43.570;27.826;2023-07-28T11:36:51;98990.34;;;38.42;25.85
11349;BME280;5729;43.570;27.826;2023-07-28T11:39:16;98983.44;;;38.51;25.08
11349;BME280;5729;43.570;27.826;2023-07-28T11:41:43;98981.72;;;38.06;23.50
11349;BME280;5729;43.570;27.826;2023-07-28T11:44:09;98976.78;;;37.78;24.42
11349;BME280;5729;43.570;27.826;2023-07-28T11:46:39;98964.09;;;38.06;23.85
11349;BME280;5729;43.570;27.826;2023-07-28T11:49:14;98964.84;;;38.06;25.93
11349;BME280;5729;43.570;27.826;2023-07-28T11:51:49;98970.91;;;38.31;29.70
11349;BME280;5729;43.570;27.826;2023-07-28T11:54:16;98976.75;;;38.33;23.20
11349;BME280;5729;43.570;27.826;2023-07-28T11:56:46;98954.59;;;37.28;23.84
11349;BME280;5729;43.570;27.826;2023-07-28T11:59:15;98962.91;;;37.07;26.65
11349;BME280;5729;43.570;27.826;2023-07-28T12:02:10;98959.41;;;36.16;26.69
11349;BME280;5729;43.570;27.826;2023-07-28T12:04:37;98948.66;;;35.88;26.12
11349;BME280;5729;43.570;27.826;2023-07-28T12:07:08;98947.84;;;36.38;27.30
11349;BME280;5729;43.570;27.826;2023-07-28T12:12:12;98940.81;;;36.32;26.30
11349;BME280;5729;43.570;27.826;2023-07-28T12:14:38;98947.97;;;36.33;26.23
11349;BME280;5729;43.570;27.826;2023-07-28T12:17:12;98935.88;;;36.06;28.40
11349;BME280;5729;43.570;27.826;2023-07-28T12:19:59;98941.25;;;36.23;30.74
11349;BME280;5729;43.570;27.826;2023-07-28T12:22:26;98944.28;;;36.38;29.23
11349;BME280;5729;43.570;27.826;2023-07-28T12:24:53;98941.44;;;36.83;27.16
11349;BME280;5729;43.570;27.826;2023-07-28T12:27:18;98934.41;;;36.90;27.93
11349;BME280;5729;43.570;27.826;2023-07-28T12:29:46;98934.63;;;36.79;28.68
11349;BME280;5729;43.570;27.826;2023-07-28T12:32:11;98927.59;;;36.72;28.21
11349;BME280;5729;43.570;27.826;2023-07-28T12:34:37;98931.56;;;36.50;33.24
11349;BME280;5729;43.570;27.826;2023-07-28T12:37:02;98923.91;;;36.51;30.72
11349;BME280;5729;43.570;27.826;2023-07-28T12:39:28;98932.25;;;36.83;28.89
11349;BME280;5729;43.570;27.826;2023-07-28T12:41:54;98925.88;;;36.95;26.20
11349;BME280;5729;43.570;27.826;2023-07-28T12:44:20;98922.75;;;36.99;28.05
11349;BME280;5729;43.570;27.826;2023-07-28T12:46:46;98908.03;;;37.19;30.36
11349;BME280;5729;43.570;27.826;2023-07-28T12:49:11;98915.06;;;37.13;26.62
11349;BME280;5729;43.570;27.826;2023-07-28T12:51:37;98918.38;;;36.58;27.45
11349;BME280;5729;43.570;27.826;2023-07-28T12:54:02;98900.44;;;36.35;34.49
11349;BME280;5729;43.570;27.826;2023-07-28T12:56:28;98891.28;;;36.34;26.19
11349;BME280;5729;43.570;27.826;2023-07-28T12:58:53;98901.75;;;35.89;28.27
11349;BME280;5729;43.570;27.826;2023-07-28T13:01:19;98896.47;;;35.66;29.61
11349;BME280;5729;43.570;27.826;2023-07-28T13:03:44;98904.72;;;35.59;27.96
11349;BME280;5729;43.570;27.826;2023-07-28T13:06:10;98899.66;;;35.20;33.62
11349;BME280;5729;43.570;27.826;2023-07-28T13:08:35;98894.09;;;35.14;32.78
11349;BME280;5729;43.570;27.826;2023-07-28T13:11:01;98898.13;;;35.19;29.51
11349;BME280;5729;43.570;27.826;2023-07-28T13:13:26;98899.13;;;35.21;29.00